createdAt,value
2019-06-10T00:00:01.929Z,1000.09
2019-06-10T00:05:03.775Z,1000.04
2019-06-10T00:10:03.800Z,999.98
2019-06-10T00:15:03.344Z,999.94
2019-06-10T00:20:03.348Z,999.85
2019-06-10T00:25:03.843Z,999.8
2019-06-10T00:30:03.365Z,999.81
2019-06-10T00:35:04.635Z,999.77
2019-06-10T00:40:02.581Z,999.72
2019-06-10T00:45:05.333Z,999.58
2019-06-10T00:50:03.902Z,999.6
2019-06-10T00:55:03.288Z,999.49
2019-06-10T01:00:12.069Z,999.47
2019-06-10T01:05:01.394Z,999.47
2019-06-10T01:10:02.838Z,999.43
2019-06-10T01:15:03.247Z,999.45
2019-06-10T01:20:01.753Z,999.43
2019-06-10T01:25:01.924Z,999.33
2019-06-10T01:30:03.094Z,999.33
2019-06-10T01:35:01.737Z,999.23
2019-06-10T01:40:01.876Z,999.07
2019-06-10T01:45:02.009Z,999.02
2019-06-10T01:50:01.112Z,998.93
2019-06-10T01:55:01.668Z,998.78
2019-06-10T02:00:08.964Z,998.72
2019-06-10T02:05:01.556Z,998.7
2019-06-10T02:10:02.083Z,998.83
2019-06-10T02:15:01.404Z,998.86
2019-06-10T02:20:01.514Z,998.81
2019-06-10T02:25:01.645Z,998.87
2019-06-10T02:30:13.191Z,998.8
2019-06-10T02:35:08.933Z,998.83
2019-06-10T02:40:04.441Z,998.81
2019-06-10T02:45:03.844Z,998.83
2019-06-10T02:50:04.578Z,998.81
2019-06-10T02:55:04.287Z,998.79
2019-06-10T03:00:06.462Z,998.72
2019-06-10T03:05:04.603Z,998.55
2019-06-10T03:10:04.777Z,998.54
2019-06-10T03:15:02.113Z,998.51
2019-06-10T03:20:02.332Z,998.43
2019-06-10T03:25:02.898Z,998.45
2019-06-10T03:30:03.104Z,998.38
2019-06-10T03:35:05.049Z,998.47
2019-06-10T03:40:02.533Z,998.46
2019-06-10T03:45:03.378Z,998.47
2019-06-10T03:50:03.241Z,998.55
2019-06-10T03:55:03.010Z,998.47
2019-06-10T04:00:02.248Z,998.39
2019-06-10T04:05:02.765Z,998.36
2019-06-10T04:10:02.405Z,998.41
2019-06-10T04:15:03.034Z,998.44
2019-06-10T04:20:09.447Z,998.42
2019-06-10T04:25:03.034Z,998.45
2019-06-10T04:30:03.300Z,998.37
2019-06-10T04:35:02.254Z,998.31
2019-06-10T04:40:02.944Z,998.35
2019-06-10T04:45:03.106Z,998.32
2019-06-10T04:50:03.199Z,998.32
2019-06-10T04:55:02.587Z,998.32
2019-06-10T05:00:04.152Z,998.33
2019-06-10T05:05:02.931Z,998.29
2019-06-10T05:10:03.258Z,998.31
2019-06-10T05:15:03.513Z,998.33
2019-06-10T05:20:02.489Z,998.29
2019-06-10T05:25:02.498Z,998.31
2019-06-10T05:30:02.483Z,998.3
2019-06-10T05:35:03.525Z,998.32
2019-06-10T05:40:02.315Z,998.29
2019-06-10T05:45:03.139Z,998.32
2019-06-10T05:50:03.206Z,998.29
2019-06-10T05:55:02.868Z,998.26
2019-06-10T06:00:07.157Z,998.19
2019-06-10T06:05:02.626Z,998.14
2019-06-10T06:10:02.514Z,998.13
2019-06-10T06:15:02.324Z,998.24
2019-06-10T06:20:02.761Z,998.18
2019-06-10T06:25:03.719Z,998.22
2019-06-10T06:30:07.001Z,998.25
2019-06-10T06:35:02.249Z,998.23
2019-06-10T06:40:02.777Z,998.15
2019-06-10T06:45:03.019Z,998.16
2019-06-10T06:50:02.701Z,998.08
2019-06-10T06:55:02.589Z,998.21
2019-06-10T07:00:22.825Z,998.13
2019-06-10T07:05:03.194Z,998.16
2019-06-10T07:10:03.354Z,998.21
2019-06-10T07:15:04.157Z,998.25
2019-06-10T07:20:03.293Z,998.19
2019-06-10T07:25:06.370Z,998.17
2019-06-10T07:30:11.311Z,998.19
2019-06-10T07:35:02.953Z,998.13
2019-06-10T07:40:03.093Z,998.12
2019-06-10T07:45:02.531Z,998.12
2019-06-10T07:50:02.992Z,998.07
2019-06-10T07:55:02.479Z,997.99
2019-06-10T08:00:03.156Z,997.87
2019-06-10T08:05:03.732Z,997.83
2019-06-10T08:10:02.865Z,997.68
2019-06-10T08:15:02.789Z,997.58
2019-06-10T08:20:02.644Z,997.54
2019-06-10T08:25:04.958Z,997.57
2019-06-10T08:30:15.650Z,997.48
2019-06-10T08:35:02.794Z,997.62
2019-06-10T08:40:03.819Z,997.54
2019-06-10T08:45:03.441Z,997.49
2019-06-10T08:50:02.669Z,997.44
2019-06-10T08:55:03.403Z,997.33
2019-06-10T09:00:07.045Z,997.24
2019-06-10T09:05:03.712Z,997.11
2019-06-10T09:10:02.977Z,997.19
2019-06-10T09:15:03.723Z,997.26
2019-06-10T09:20:02.958Z,997.3
2019-06-10T09:25:02.984Z,997.17
2019-06-10T09:30:02.996Z,997.15
2019-06-10T09:35:03.473Z,997.07
2019-06-10T09:40:03.365Z,997.06
2019-06-10T09:45:02.605Z,997.04
2019-06-10T09:50:03.245Z,996.99
2019-06-10T09:55:02.792Z,996.91
2019-06-10T10:00:03.405Z,996.83
2019-06-10T10:05:01.562Z,996.78
2019-06-10T10:10:05.062Z,996.75
2019-06-10T10:15:22.254Z,996.65
2019-06-10T10:20:03.195Z,996.59
2019-06-10T10:25:03.032Z,996.62
2019-06-10T10:30:03.359Z,996.45
2019-06-10T10:35:03.053Z,996.43
2019-06-10T10:40:03.251Z,996.33
2019-06-10T10:45:02.777Z,996.27
2019-06-10T10:50:02.843Z,996.19
2019-06-10T10:55:06.446Z,996.13
2019-06-10T11:00:03.160Z,995.97
2019-06-10T11:05:01.452Z,995.91
2019-06-10T11:10:03.932Z,995.93
2019-06-10T11:15:04.925Z,995.85
2019-06-10T11:20:03.690Z,995.87
2019-06-10T11:25:01.960Z,995.87
2019-06-10T11:30:02.508Z,995.77
2019-06-10T11:35:02.933Z,995.83
2019-06-10T11:40:02.868Z,995.83
2019-06-10T11:45:02.918Z,995.79
2019-06-10T11:50:03.474Z,995.73
2019-06-10T11:55:11.686Z,995.7
2019-06-10T12:00:13.195Z,995.61
2019-06-10T12:05:04.054Z,995.63
2019-06-10T12:10:01.504Z,995.59
2019-06-10T12:15:01.733Z,995.51
2019-06-10T12:20:03.229Z,995.61
2019-06-10T12:25:26.866Z,995.58
2019-06-10T12:30:04.843Z,995.48
2019-06-10T12:35:05.022Z,995.39
2019-06-10T12:40:05.570Z,995.38
2019-06-10T12:45:05.953Z,995.39
2019-06-10T12:50:04.074Z,995.41
2019-06-10T12:55:02.410Z,995.33
2019-06-10T13:00:14.398Z,995.29
2019-06-10T13:05:04.758Z,995.25
2019-06-10T13:10:02.622Z,995.14
2019-06-10T13:15:04.752Z,995.1
2019-06-10T13:20:05.933Z,995.03
2019-06-10T13:25:02.744Z,995.13
2019-06-10T13:30:02.702Z,995.21
2019-06-10T13:35:03.662Z,995.21
2019-06-10T13:40:05.458Z,995.05
2019-06-10T13:45:04.861Z,994.9
2019-06-10T13:50:06.236Z,994.84
2019-06-10T13:55:03.461Z,994.75
2019-06-10T14:00:04.267Z,994.75
2019-06-10T14:05:06.752Z,994.63
2019-06-10T14:10:07.256Z,994.75
2019-06-10T14:15:04.114Z,994.64
2019-06-10T14:20:01.781Z,994.59
2019-06-10T14:25:03.375Z,994.67
2019-06-10T14:30:02.812Z,994.69
2019-06-10T14:35:01.695Z,994.84
2019-06-10T14:40:03.936Z,994.9
2019-06-10T14:45:01.517Z,995.02
2019-06-10T14:50:03.290Z,994.95
2019-06-10T14:55:02.638Z,995
2019-06-10T15:00:03.029Z,994.83
2019-06-10T15:05:02.773Z,994.64
2019-06-10T15:10:03.467Z,994.47
2019-06-10T15:15:01.672Z,994.36
2019-06-10T15:20:03.719Z,994.24
2019-06-10T15:25:03.187Z,994.23
2019-06-10T15:30:11.382Z,994.15
2019-06-10T15:35:03.355Z,994.08
2019-06-10T15:40:03.649Z,993.94
2019-06-10T15:45:02.522Z,994
2019-06-10T15:50:03.132Z,994.02
2019-06-10T15:55:04.144Z,994.11
2019-06-10T16:00:04.194Z,994.2
2019-06-10T16:05:02.046Z,994.31
2019-06-10T16:10:02.909Z,994.24
2019-06-10T16:15:02.675Z,994.42
2019-06-10T16:20:03.818Z,994.45
2019-06-10T16:25:03.443Z,994.47
2019-06-10T16:30:02.758Z,994.46
2019-06-10T16:35:04.019Z,994.37
2019-06-10T16:40:03.328Z,994.4
2019-06-10T16:45:02.532Z,994.31
2019-06-10T16:50:03.286Z,994.27
2019-06-10T16:55:02.280Z,994.21
2019-06-10T17:00:06.976Z,994.1
2019-06-10T17:05:03.177Z,994.21
2019-06-10T17:10:02.355Z,994.35
2019-06-10T17:15:03.456Z,994.37
2019-06-10T17:20:03.777Z,994.37
2019-06-10T17:25:02.113Z,994.34
2019-06-10T17:30:02.846Z,994.31
2019-06-10T17:35:02.296Z,994.27
2019-06-10T17:40:02.618Z,994.36
2019-06-10T17:45:02.534Z,994.41
2019-06-10T17:50:02.375Z,994.43
2019-06-10T17:55:03.359Z,994.4
2019-06-10T18:00:07.321Z,994.4
2019-06-10T18:05:03.223Z,994.31
2019-06-10T18:10:02.691Z,994.25
2019-06-10T18:15:03.539Z,994.31
2019-06-10T18:20:02.806Z,994.51
2019-06-10T18:25:03.063Z,994.6
2019-06-10T18:30:02.444Z,994.76
2019-06-10T18:35:02.908Z,994.9
2019-06-10T18:40:02.823Z,994.97
2019-06-10T18:45:02.697Z,994.99
2019-06-10T18:50:01.927Z,995.02
2019-06-10T18:55:03.336Z,995
2019-06-10T19:00:04.252Z,994.93
2019-06-10T19:05:02.820Z,995.18
2019-06-10T19:10:02.462Z,995.07
2019-06-10T19:15:02.796Z,995.07
2019-06-10T19:20:03.921Z,995.11
2019-06-10T19:25:03.637Z,995.08
2019-06-10T19:30:01.993Z,994.98
2019-06-10T19:35:02.831Z,995.19
2019-06-10T19:40:01.989Z,995.29
2019-06-10T19:45:03.041Z,995.34
2019-06-10T19:50:03.015Z,995.3
2019-06-10T19:55:02.654Z,995.45
2019-06-10T20:00:10.749Z,995.44
2019-06-10T20:05:02.314Z,995.59
2019-06-10T20:10:02.820Z,995.67
2019-06-10T20:15:02.245Z,995.7
2019-06-10T20:20:02.556Z,995.77
2019-06-10T20:25:03.795Z,995.72
2019-06-10T20:30:10.111Z,995.84
2019-06-10T20:35:02.980Z,995.83
2019-06-10T20:40:03.632Z,995.79
2019-06-10T20:45:04.579Z,995.76
2019-06-10T20:50:03.148Z,995.84
2019-06-10T20:55:03.013Z,995.78
2019-06-10T21:00:01.358Z,995.71
2019-06-10T21:05:02.790Z,995.64
2019-06-10T21:10:02.740Z,995.58
2019-06-10T21:15:02.338Z,995.48
2019-06-10T21:20:03.437Z,995.34
2019-06-10T21:25:02.341Z,995.39
2019-06-10T21:30:04.358Z,995.42
2019-06-10T21:35:03.083Z,995.32
2019-06-10T21:40:03.236Z,995.22
2019-06-10T21:45:03.438Z,995.23
2019-06-10T21:50:01.738Z,995.18
2019-06-10T21:55:02.984Z,995.12
2019-06-10T22:00:02.541Z,995.11
2019-06-10T22:05:03.301Z,995.19
2019-06-10T22:10:02.546Z,995.23
2019-06-10T22:15:01.816Z,995.28
2019-06-10T22:20:01.912Z,995.39
2019-06-10T22:25:02.940Z,995.46
2019-06-10T22:30:04.145Z,995.58
2019-06-10T22:35:03.051Z,995.69
2019-06-10T22:40:03.374Z,995.72
2019-06-10T22:45:03.986Z,995.84
2019-06-10T22:50:07.011Z,995.78
2019-06-10T22:55:03.537Z,995.65
2019-06-10T23:00:03.092Z,995.77
2019-06-10T23:05:04.992Z,995.83
2019-06-10T23:10:03.248Z,995.83
2019-06-10T23:15:05.024Z,995.94
2019-06-10T23:20:07.627Z,996.09
2019-06-10T23:25:07.852Z,996.07
2019-06-10T23:30:11.252Z,996
2019-06-10T23:35:07.882Z,995.93
2019-06-10T23:40:09.884Z,996
2019-06-10T23:45:05.166Z,996.13
2019-06-10T23:50:07.431Z,996.17
2019-06-10T23:55:10.291Z,996.07
